createdAt,value
2018-06-11T00:00:40.925Z,19.97
2018-06-11T00:03:09.868Z,24.00
2018-06-11T00:05:41.842Z,22.37
2018-06-11T00:08:13.971Z,19.77
2018-06-11T00:10:48.049Z,17.00
2018-06-11T00:13:16.910Z,15.87
2018-06-11T00:15:45.934Z,16.13
2018-06-11T00:18:14.999Z,20.63
2018-06-11T00:20:44.075Z,14.80
2018-06-11T00:23:17.924Z,13.50
2018-06-11T00:25:48.231Z,13.00
2018-06-11T00:28:23.993Z,11.87
2018-06-11T00:30:52.823Z,11.70
2018-06-11T00:33:21.748Z,11.93
2018-06-11T00:35:50.574Z,13.07
2018-06-11T00:38:19.669Z,16.33
2018-06-11T00:40:52.829Z,13.30
2018-06-11T00:43:25.849Z,12.87
2018-06-11T00:45:56.044Z,11.67
2018-06-11T00:48:25.058Z,12.03
2018-06-11T00:50:53.826Z,12.37
2018-06-11T00:53:22.735Z,12.43
2018-06-11T00:56:07.762Z,10.63
2018-06-11T00:58:41.412Z,10.43
2018-06-11T01:01:13.127Z,10.30
2018-06-11T01:03:49.857Z,13.87
2018-06-11T01:06:18.817Z,10.97
2018-06-11T01:08:47.550Z,11.10
2018-06-11T01:11:16.776Z,10.40
2018-06-11T01:13:48.688Z,11.47
2018-06-11T01:16:20.536Z,13.20
2018-06-11T01:18:52.744Z,10.20
2018-06-11T01:21:21.578Z,14.63
2018-06-11T01:23:50.386Z,9.97
2018-06-11T01:26:19.260Z,10.07
2018-06-11T01:28:48.310Z,11.67
2018-06-11T01:31:18.740Z,11.30
2018-06-11T01:33:49.774Z,10.97
2018-06-11T01:36:20.516Z,11.20
2018-06-11T01:38:49.461Z,12.80
2018-06-11T01:41:18.326Z,13.03
2018-06-11T01:43:47.173Z,13.33
2018-06-11T01:46:16.802Z,12.83
2018-06-11T01:48:48.074Z,15.73
2018-06-11T01:51:21.087Z,14.53
2018-06-11T01:53:52.470Z,14.07
2018-06-11T01:56:21.247Z,13.77
2018-06-11T01:58:50.116Z,17.43
2018-06-11T02:01:18.902Z,14.93
2018-06-11T02:03:48.038Z,15.03
2018-06-11T02:06:20.508Z,15.30
2018-06-11T02:08:53.091Z,13.77
2018-06-11T02:11:25.433Z,14.40
2018-06-11T02:13:54.300Z,15.30
2018-06-11T02:16:23.118Z,17.43
2018-06-11T02:18:52.091Z,20.63
2018-06-11T02:21:21.635Z,15.73
2018-06-11T02:23:52.695Z,12.17
2018-06-11T02:26:24.026Z,15.57
2018-06-11T02:28:55.894Z,16.40
2018-06-11T02:31:24.858Z,12.23
2018-06-11T02:33:53.646Z,16.27
2018-06-11T02:36:22.641Z,16.40
2018-06-11T02:38:52.288Z,14.37
2018-06-11T02:41:22.117Z,16.90
2018-06-11T02:43:56.996Z,13.97
2018-06-11T02:46:28.977Z,14.93
2018-06-11T02:48:57.744Z,16.07
2018-06-11T02:51:26.663Z,19.13
2018-06-11T02:53:55.662Z,13.27
2018-06-11T02:56:27.071Z,15.50
2018-06-11T02:58:57.863Z,15.60
2018-06-11T03:01:28.711Z,19.87
2018-06-11T03:04:01.946Z,18.33
2018-06-11T03:06:30.827Z,20.30
2018-06-11T03:08:59.914Z,18.17
2018-06-11T03:11:28.908Z,20.17
2018-06-11T03:14:00.127Z,17.33
2018-06-11T03:16:32.151Z,23.63
2018-06-11T03:19:04.043Z,22.93
2018-06-11T03:21:32.854Z,21.07
2018-06-11T03:24:01.619Z,22.00
2018-06-11T03:26:30.519Z,23.33
2018-06-11T03:28:59.771Z,18.77
2018-06-11T03:31:32.257Z,14.83
2018-06-11T03:34:04.233Z,16.53
2018-06-11T03:36:36.356Z,16.47
2018-06-11T03:39:08.241Z,17.83
2018-06-11T03:41:37.574Z,20.17
2018-06-11T03:44:06.345Z,19.87
2018-06-11T03:46:35.495Z,21.37
2018-06-11T03:49:08.387Z,20.13
2018-06-11T03:51:38.664Z,18.27
2018-06-11T03:54:11.669Z,20.63
2018-06-11T03:56:40.495Z,19.67
2018-06-11T03:59:23.110Z,22.00
2018-06-11T04:01:52.083Z,22.47
2018-06-11T04:04:27.768Z,22.57
2018-06-11T04:07:00.060Z,17.53
2018-06-11T04:16:58.177Z,21.77
2018-06-11T04:19:27.193Z,18.50
2018-06-11T04:21:57.446Z,19.20
2018-06-11T04:24:28.264Z,23.33
2018-06-11T04:26:58.609Z,17.47
2018-06-11T04:29:32.381Z,20.60
2018-06-11T04:32:01.184Z,17.77
2018-06-11T04:34:30.042Z,18.37
2018-06-11T04:36:59.074Z,18.77
2018-06-11T04:39:30.027Z,19.03
2018-06-11T04:42:00.249Z,20.67
2018-06-11T04:44:32.718Z,18.93
2018-06-11T04:47:01.602Z,17.93
2018-06-11T04:49:30.374Z,20.17
2018-06-11T04:52:00.218Z,16.80
2018-06-11T04:54:29.439Z,19.80
2018-06-11T04:56:58.767Z,16.90
2018-06-11T04:59:28.088Z,19.10
2018-06-11T05:01:58.418Z,19.90
2018-06-11T05:04:27.306Z,22.57
2018-06-11T05:06:56.434Z,18.70
2018-06-11T05:09:25.250Z,20.20
2018-06-11T05:11:54.459Z,17.50
2018-06-11T05:14:24.006Z,17.33
2018-06-11T05:16:53.731Z,19.07
2018-06-11T05:19:25.740Z,17.60
2018-06-11T05:21:54.558Z,18.80
2018-06-11T05:24:23.491Z,20.30
2018-06-11T05:26:52.399Z,23.23
2018-06-11T05:29:21.662Z,23.80
2018-06-11T05:31:52.020Z,20.03
2018-06-11T05:34:22.007Z,20.63
2018-06-11T05:36:51.679Z,19.60
2018-06-11T05:39:20.390Z,22.67
2018-06-11T05:41:49.671Z,18.97
2018-06-11T05:44:18.505Z,17.90
2018-06-11T05:46:49.150Z,22.70
2018-06-11T05:49:24.852Z,19.60
2018-06-11T05:51:58.079Z,20.80
2018-06-11T05:54:29.959Z,23.20
2018-06-11T05:56:58.819Z,16.93
2018-06-11T05:59:27.862Z,19.13
2018-06-11T06:01:57.097Z,20.50
2018-06-11T06:04:29.877Z,19.33
2018-06-11T06:07:06.083Z,23.63
2018-06-11T06:09:40.751Z,24.10
2018-06-11T06:12:09.746Z,22.00
2018-06-11T06:14:38.738Z,22.20
2018-06-11T06:17:07.758Z,25.80
2018-06-11T06:19:36.708Z,24.40
2018-06-11T06:22:12.510Z,23.70
2018-06-11T06:24:46.015Z,25.33
2018-06-11T06:27:21.657Z,24.73
2018-06-11T06:29:50.459Z,24.37
2018-06-11T06:32:19.630Z,21.80
2018-06-11T06:34:48.621Z,28.10
2018-06-11T06:37:18.346Z,27.53
2018-06-11T06:39:51.745Z,24.17
2018-06-11T06:42:24.628Z,23.90
2018-06-11T06:44:57.553Z,21.23
2018-06-11T06:47:26.454Z,26.90
2018-06-11T06:49:55.594Z,23.20
2018-06-11T06:52:24.397Z,24.40
2018-06-11T06:54:54.786Z,24.00
2018-06-11T06:57:26.105Z,25.23
2018-06-11T06:59:56.345Z,22.77
2018-06-11T07:02:26.557Z,26.90
2018-06-11T07:04:56.112Z,28.43
2018-06-11T07:07:24.986Z,27.83
2018-06-11T07:09:53.918Z,26.30
2018-06-11T07:12:23.211Z,33.63
2018-06-11T07:14:53.472Z,28.87
2018-06-11T07:17:25.501Z,24.00
2018-06-11T07:19:54.860Z,25.10
2018-06-11T07:22:23.864Z,25.03
2018-06-11T07:24:52.609Z,23.13
2018-06-11T07:27:21.606Z,21.00
2018-06-11T07:29:50.814Z,23.80
2018-06-11T07:32:20.035Z,29.70
2018-06-11T07:34:49.427Z,24.20
2018-06-11T07:38:11.011Z,19.97
2018-06-11T07:40:39.883Z,20.77
2018-06-11T07:43:08.717Z,22.37
2018-06-11T07:45:37.682Z,30.50
2018-06-11T07:48:06.876Z,23.87
2018-06-11T07:57:29.999Z,23.93
2018-06-11T07:59:58.935Z,22.10
2018-06-11T08:02:28.170Z,23.00
2018-06-11T08:04:57.463Z,20.83
2018-06-11T08:07:26.601Z,22.30
2018-06-11T08:09:56.380Z,19.93
2018-06-11T08:12:25.401Z,19.90
2018-06-11T08:14:54.410Z,24.50
2018-06-11T08:17:23.592Z,19.63
2018-06-11T08:19:52.781Z,19.40
2018-06-11T08:31:30.188Z,14.23
2018-06-11T08:33:59.291Z,14.57
2018-06-11T13:49:57.179Z,4.37
2018-06-11T13:52:26.258Z,4.30
2018-06-11T13:54:55.259Z,6.23
2018-06-11T14:09:37.440Z,8.17
2018-06-11T14:12:07.115Z,8.53
2018-06-11T14:14:36.772Z,7.83
2018-06-11T14:26:21.999Z,9.37
2018-06-11T14:28:52.125Z,10.07
2018-06-11T14:31:23.028Z,10.43
2018-06-11T14:43:22.415Z,10.67
2018-06-11T14:45:53.055Z,12.50
2018-06-11T14:48:22.869Z,10.87
2018-06-11T15:03:04.835Z,9.03
2018-06-11T15:05:34.068Z,8.70
2018-06-11T15:20:21.854Z,7.23
2018-06-11T15:22:52.811Z,9.47
2018-06-11T15:37:34.492Z,10.37
2018-06-11T15:40:03.698Z,14.40
2018-06-11T15:42:38.284Z,8.33
2018-06-11T16:18:42.360Z,8.43
2018-06-11T16:21:12.461Z,7.40
2018-06-11T16:23:45.325Z,9.00
2018-06-11T16:26:24.666Z,5.97
2018-06-11T16:29:15.599Z,6.13
2018-06-11T16:31:45.680Z,6.17
2018-06-11T16:34:14.763Z,9.27
2018-06-11T16:36:44.104Z,6.83
2018-06-11T16:45:21.134Z,7.40
2018-06-11T16:48:04.077Z,7.57
2018-06-11T16:53:37.472Z,6.93
2018-06-11T16:56:24.142Z,7.13
2018-06-11T16:59:49.589Z,6.27
2018-06-11T17:05:09.884Z,6.97
2018-06-11T17:07:41.338Z,8.97
2018-06-11T17:10:16.182Z,9.90
2018-06-11T17:12:48.087Z,9.77
2018-06-11T17:18:25.943Z,7.50
2018-06-11T17:24:05.294Z,8.30
2018-06-11T17:29:52.822Z,8.77
2018-06-11T17:35:17.984Z,5.67
2018-06-11T17:37:52.980Z,9.33
2018-06-11T17:43:29.971Z,7.17
2018-06-11T17:46:21.561Z,8.80
2018-06-11T17:49:00.652Z,9.07
2018-06-11T17:54:24.673Z,8.90
2018-06-11T17:57:01.948Z,9.60
2018-06-11T17:59:33.298Z,8.23
2018-06-11T18:02:02.189Z,8.27
2018-06-11T18:04:31.107Z,10.33
2018-06-11T18:07:00.291Z,8.97
2018-06-11T18:09:32.608Z,10.53
2018-06-11T18:12:08.486Z,9.13
2018-06-11T18:14:45.106Z,10.47
2018-06-11T18:17:20.210Z,11.43
2018-06-11T18:19:57.395Z,10.10
2018-06-11T18:22:29.929Z,6.90
2018-06-11T18:25:01.351Z,7.10
2018-06-11T18:27:36.450Z,7.90
2018-06-11T18:30:09.644Z,7.43
2018-06-11T18:32:44.245Z,7.93
2018-06-11T18:35:17.352Z,7.20
2018-06-11T18:37:48.741Z,8.77
2018-06-11T18:40:21.712Z,7.10
2018-06-11T18:42:53.872Z,6.30
2018-06-11T18:45:22.812Z,7.27
2018-06-11T18:47:51.629Z,10.37
2018-06-11T18:50:20.595Z,7.17
2018-06-11T18:52:50.657Z,8.20
2018-06-11T18:55:20.542Z,6.53
2018-06-11T18:57:53.556Z,9.10
2018-06-11T19:00:24.687Z,5.60
2018-06-11T19:02:54.945Z,6.87
2018-06-11T19:05:26.363Z,7.27
2018-06-11T19:08:01.111Z,7.03
2018-06-11T19:10:50.479Z,5.47
2018-06-11T19:15:59.041Z,9.13
2018-06-11T19:18:28.423Z,10.03
2018-06-11T19:20:57.464Z,6.87
2018-06-11T19:23:32.590Z,5.60
2018-06-11T19:34:56.869Z,6.37
2018-06-11T19:43:58.351Z,6.63
2018-06-11T19:46:27.718Z,6.90
2018-06-11T19:48:56.936Z,6.60
2018-06-11T19:51:29.831Z,6.43
2018-06-11T20:03:22.157Z,7.27
2018-06-11T20:06:04.272Z,5.40
2018-06-11T20:08:45.354Z,5.87
2018-06-11T20:11:22.294Z,6.97
2018-06-11T20:22:09.696Z,5.57
2018-06-11T20:24:38.502Z,5.90
2018-06-11T20:27:07.497Z,3.40
2018-06-11T20:29:39.264Z,7.17
2018-06-11T20:32:21.373Z,5.83
2018-06-11T20:43:32.785Z,8.83
2018-06-11T20:46:05.977Z,9.13
2018-06-11T20:48:50.083Z,8.67
2018-06-11T20:51:25.249Z,5.80
2018-06-11T20:54:09.471Z,5.97
2018-06-11T20:56:53.592Z,5.57
2018-06-11T21:02:21.918Z,4.13
2018-06-11T21:04:53.655Z,7.17
2018-06-11T21:07:26.490Z,4.33
2018-06-11T21:09:55.391Z,4.97
2018-06-11T21:12:24.251Z,4.37
2018-06-11T21:14:53.307Z,5.70
2018-06-11T21:17:23.516Z,7.47
2018-06-11T21:38:53.879Z,3.97
2018-06-11T21:41:22.869Z,4.33
2018-06-11T21:43:51.998Z,4.40
2018-06-11T21:46:21.157Z,7.03
2018-06-11T21:48:50.379Z,4.30
2018-06-11T21:55:00.604Z,6.67
2018-06-11T22:00:53.035Z,8.67
2018-06-11T22:03:32.517Z,8.23
2018-06-11T22:06:13.341Z,4.67
2018-06-11T22:08:50.424Z,4.20
2018-06-11T22:14:07.476Z,7.07
2018-06-11T22:16:40.628Z,4.77
2018-06-11T22:19:13.876Z,6.00
2018-06-11T22:21:45.652Z,4.20
2018-06-11T22:24:18.480Z,6.83
2018-06-11T22:26:47.380Z,6.00
2018-06-11T22:29:16.404Z,6.00
2018-06-11T22:31:45.378Z,7.73
2018-06-11T22:34:14.467Z,6.60
2018-06-11T22:36:49.814Z,5.43
2018-06-11T22:42:17.160Z,8.07
2018-06-11T22:56:57.470Z,4.97
2018-06-11T22:59:37.969Z,8.03
2018-06-11T23:02:17.773Z,4.83
2018-06-11T23:04:56.339Z,5.23
2018-06-11T23:10:24.768Z,7.33
2018-06-11T23:13:12.796Z,6.13
2018-06-11T23:15:54.566Z,6.47
2018-06-11T23:18:41.114Z,8.03
2018-06-11T23:21:22.156Z,8.97
2018-06-11T23:24:05.758Z,6.13
2018-06-11T23:29:36.678Z,8.83
2018-06-11T23:35:16.457Z,6.00
2018-06-11T23:37:49.896Z,6.07
2018-06-11T23:51:34.547Z,5.33
2018-06-11T23:54:03.451Z,6.97
2018-06-11T23:56:32.262Z,6.50
2018-06-11T23:59:05.867Z,13.57
